»·PEaware :: PSV74 KSFO-KLGB

PSV74 :: KSFO-KLGB

FLIGHT INFORMATION

Flight Status: Arrived
Operator:
Power Set Virtual (website)
More flights by this operator :: More flights under this callsign
Pilot: Josh T. (20631)
Aircraft: BOEING 737-700
(B737)
More flights by this aircraft type
Origin: KSFO San Francisco Intl
United States
Destination: KLGB Long Beach
United States
More flights between these airports :: More routes between these airports
Route: +OFFSH2 MCKEY TILLT BAUBB2
File this flight plan on PilotEdge
Remarks:
Altitude:
(Current/Filed)
37,000ft
Speed:
(Current/Filed)
450kts
Departed: 19-May-20 03:39 PM
Arrived: 19-May-20 04:37 PM
Distance/Time
Traveled:
307nm/0:58
Distance/Time
To Go:
Arrived

Flight Plot

Page will automatically refresh every two minutes.


Map Options




Map Legend


Flown Route
Filed Route
Departure Airport
Arrival Airport
Navaid (VOR, NDB)
Fix

Horizontal Profiles

Position Reports

Time Latitude Longitude Heading Altitude Ground
Speed
19-May-20 15:19 37.612227 -122.384209 50 21ft 0kts
19-May-20 15:20 37.612227 -122.384209 50 21ft 0kts
19-May-20 15:21 37.612227 -122.384209 50 21ft 0kts
19-May-20 15:22 37.612227 -122.384209 50 21ft 0kts
19-May-20 15:23 37.612227 -122.384209 50 21ft 0kts
19-May-20 15:24 37.612227 -122.384209 50 21ft 0kts
19-May-20 15:25 37.612227 -122.384209 50 21ft 0kts
19-May-20 15:26 37.612227 -122.384209 50 21ft 0kts
19-May-20 15:27 37.612227 -122.384209 50 21ft 0kts
19-May-20 15:28 37.612148 -122.384329 50 21ft 2kts
19-May-20 15:29 37.611660 -122.385072 50 21ft 2kts
19-May-20 15:30 37.611653 -122.385083 50 21ft 0kts
19-May-20 15:31 37.611654 -122.385082 50 21ft 0kts
19-May-20 15:32 37.611401 -122.384080 109 21ft 0kts
19-May-20 15:33 37.611401 -122.384080 109 21ft 0kts
19-May-20 15:34 37.611040 -122.383377 170 21ft 10kts
19-May-20 15:35 37.609325 -122.383252 120 21ft 0kts
19-May-20 15:36 37.609325 -122.383252 120 21ft 0kts
19-May-20 15:37 37.609416 -122.381878 29 21ft 13kts
19-May-20 15:38 37.632280 -122.365957 28 728ft 159kts
19-May-20 15:39 37.677961 -122.361621 348 3095ft 211kts
19-May-20 15:40 37.713384 -122.417714 256 5500ft 264kts
19-May-20 15:41 37.654525 -122.477358 221 9682ft 291kts
19-May-20 15:42 37.603100 -122.564124 235 12856ft 335kts
19-May-20 15:43 37.523500 -122.634772 216 16706ft 366kts
19-May-20 15:44 37.433891 -122.705172 211 19254ft 389kts
19-May-20 15:45 37.327251 -122.692114 153 21062ft 412kts
19-May-20 15:46 37.217994 -122.636102 167 24067ft 436kts
19-May-20 15:47 37.095168 -122.606534 169 26496ft 463kts
19-May-20 15:48 36.966184 -122.572957 170 28598ft 486kts
19-May-20 15:49 36.830500 -122.537700 170 30438ft 506kts
19-May-20 15:50 36.691326 -122.501518 171 32339ft 515kts
19-May-20 15:51 36.551879 -122.465497 172 34543ft 506kts
19-May-20 15:52 36.418928 -122.413885 148 36539ft 507kts
19-May-20 15:53 36.320797 -122.285963 130 37158ft 524kts
19-May-20 15:54 36.225825 -122.146661 131 37160ft 529kts
19-May-20 15:55 36.130580 -122.007746 131 37157ft 528kts
19-May-20 15:56 36.035256 -121.869892 131 37149ft 528kts
19-May-20 15:57 35.939432 -121.732048 131 37144ft 528kts
19-May-20 15:58 35.843597 -121.594764 132 37136ft 528kts
19-May-20 15:59 35.747764 -121.458024 132 37120ft 528kts
19-May-20 16:00 35.651895 -121.321298 133 37103ft 528kts
19-May-20 16:01 35.555392 -121.184971 133 37105ft 526kts
19-May-20 16:02 35.459486 -121.049821 134 37105ft 525kts
19-May-20 16:03 35.363695 -120.914472 136 37111ft 523kts
19-May-20 16:04 35.257374 -120.793866 142 37124ft 519kts
19-May-20 16:05 35.150171 -120.676181 142 37130ft 519kts
19-May-20 16:06 35.130018 -120.654132 142 37130ft 519kts
19-May-20 16:08 34.810754 -120.371632 0 37129ft 0kts
19-May-20 16:09 34.810754 -120.371632 0 37129ft 0kts
19-May-20 16:11 34.446716 -120.080561 154 37077ft 513kts
19-May-20 16:12 34.327056 -119.984991 154 36437ft 514kts
19-May-20 16:13 34.207559 -119.890267 155 35343ft 510kts
19-May-20 16:14 34.092479 -119.795709 147 33411ft 503kts
19-May-20 16:15 34.009532 -119.656019 125 30777ft 514kts
19-May-20 16:16 33.937794 -119.511822 127 28176ft 493kts
19-May-20 16:17 33.867798 -119.371854 126 25562ft 482kts
19-May-20 16:18 33.800307 -119.235306 126 22991ft 467kts
19-May-20 16:19 33.735781 -119.105213 125 20480ft 432kts
19-May-20 16:20 33.677454 -118.986443 123 18118ft 394kts
19-May-20 16:21 33.623455 -118.878268 123 15925ft 364kts
19-May-20 16:22 33.573036 -118.770806 112 13693ft 365kts
19-May-20 16:23 33.552541 -118.656834 99 11483ft 335kts
19-May-20 16:24 33.535113 -118.548051 100 9613ft 318kts
19-May-20 16:25 33.521078 -118.454708 92 8637ft 266kts
19-May-20 16:26 33.519029 -118.363281 90 7496ft 280kts
19-May-20 16:27 33.562777 -118.300179 23 6414ft 262kts
19-May-20 16:28 33.628794 -118.263978 21 5354ft 257kts
19-May-20 16:29 33.689777 -118.232664 22 4613ft 221kts
19-May-20 16:30 33.745672 -118.232485 355 3850ft 185kts
19-May-20 16:31 33.771480 -118.263292 233 3839ft 168kts
19-May-20 16:32 33.738834 -118.244016 84 3989ft 175kts
19-May-20 16:33 33.778334 -118.220657 358 4040ft 173kts
19-May-20 16:34 33.827931 -118.223588 356 2950ft 200kts
19-May-20 16:35 33.839937 -118.180425 113 1121ft 166kts
19-May-20 16:36 33.815863 -118.149066 125 68ft 27kts
19-May-20 16:37 33.815074 -118.146087 350 68ft 10kts

Navigation Log

Ident Type
Flight plan parsing failed, navigation log unavailable